createdAt,value
2017-12-11T00:00:24.072Z,9.80
2017-12-11T00:02:55.821Z,10.67
2017-12-11T00:05:27.519Z,9.90
2017-12-11T00:07:57.920Z,9.10
2017-12-11T00:10:28.881Z,9.53
2017-12-11T00:13:00.348Z,6.87
2017-12-11T00:15:30.652Z,7.10
2017-12-11T00:18:01.387Z,5.40
2017-12-11T00:20:32.186Z,5.57
2017-12-11T00:23:02.594Z,6.30
2017-12-11T00:25:32.883Z,6.43
2017-12-11T00:28:03.595Z,5.73
2017-12-11T00:30:34.603Z,5.87
2017-12-11T00:33:05.611Z,6.93
2017-12-11T00:35:35.720Z,6.17
2017-12-11T00:38:06.919Z,5.10
2017-12-11T00:40:38.003Z,5.40
2017-12-11T00:43:08.820Z,7.33
2017-12-11T00:45:39.162Z,6.60
2017-12-11T00:48:09.875Z,5.80
2017-12-11T00:50:40.387Z,6.43
2017-12-11T00:53:11.416Z,6.20
2017-12-11T00:55:42.683Z,7.13
2017-12-11T00:58:13.059Z,5.67
2017-12-11T01:00:43.842Z,5.40
2017-12-11T01:03:14.680Z,5.80
2017-12-11T01:05:45.207Z,6.70
2017-12-11T01:08:15.616Z,6.67
2017-12-11T01:10:47.449Z,6.60
2017-12-11T01:13:17.814Z,6.43
2017-12-11T01:15:48.071Z,8.10
2017-12-11T01:18:18.872Z,7.37
2017-12-11T01:20:49.376Z,6.90
2017-12-11T01:23:20.245Z,7.27
2017-12-11T01:25:50.405Z,6.47
2017-12-11T01:28:22.272Z,7.57
2017-12-11T01:30:53.615Z,7.83
2017-12-11T01:33:24.382Z,7.10
2017-12-11T01:35:55.087Z,6.70
2017-12-11T01:38:26.412Z,7.07
2017-12-11T01:40:57.241Z,7.83
2017-12-11T01:43:28.818Z,6.83
2017-12-11T01:45:59.140Z,8.10
2017-12-11T01:48:29.736Z,6.60
2017-12-11T01:51:00.244Z,7.27
2017-12-11T01:53:30.921Z,8.33
2017-12-11T01:56:01.245Z,7.03
2017-12-11T01:58:32.192Z,7.50
2017-12-11T02:01:02.590Z,6.80
2017-12-11T02:03:34.169Z,6.13
2017-12-11T02:06:04.459Z,7.00
2017-12-11T02:08:35.445Z,6.43
2017-12-11T02:11:07.489Z,5.97
2017-12-11T02:13:39.271Z,6.70
2017-12-11T02:16:10.685Z,7.17
2017-12-11T02:18:42.345Z,7.63
2017-12-11T02:21:14.444Z,5.93
2017-12-11T02:23:45.513Z,6.00
2017-12-11T02:26:16.152Z,5.33
2017-12-11T02:28:47.377Z,6.63
2017-12-11T02:31:17.923Z,6.40
2017-12-11T02:33:49.993Z,5.60
2017-12-11T02:36:20.607Z,5.53
2017-12-11T02:38:51.379Z,6.00
2017-12-11T02:41:22.865Z,5.93
2017-12-11T02:43:53.816Z,6.23
2017-12-11T02:46:24.786Z,5.80
2017-12-11T02:48:55.795Z,5.40
2017-12-11T02:51:26.651Z,4.90
2017-12-11T02:53:57.849Z,5.70
2017-12-11T02:56:28.475Z,5.40
2017-12-11T02:59:00.073Z,6.10
2017-12-11T03:01:30.561Z,4.60
2017-12-11T03:04:02.018Z,5.40
2017-12-11T03:06:33.372Z,5.10
2017-12-11T03:09:05.101Z,4.83
2017-12-11T03:11:35.414Z,5.50
2017-12-11T03:14:05.954Z,5.77
2017-12-11T03:16:37.076Z,5.50
2017-12-11T03:19:08.710Z,4.93
2017-12-11T03:21:39.203Z,5.10
2017-12-11T03:24:09.933Z,5.00
2017-12-11T03:26:40.814Z,4.20
2017-12-11T03:29:12.124Z,4.33
2017-12-11T03:31:42.905Z,4.20
2017-12-11T03:34:13.274Z,3.73
2017-12-11T03:36:44.213Z,4.90
2017-12-11T03:39:15.447Z,5.20
2017-12-11T03:41:46.668Z,4.33
2017-12-11T03:44:17.739Z,4.90
2017-12-11T03:46:48.449Z,4.83
2017-12-11T03:49:19.819Z,4.47
2017-12-11T03:51:51.125Z,5.03
2017-12-11T03:54:21.469Z,4.70
2017-12-11T03:56:52.248Z,4.97
2017-12-11T03:59:23.161Z,5.07
2017-12-11T04:01:54.430Z,4.97
2017-12-11T04:04:25.145Z,4.83
2017-12-11T04:06:55.994Z,4.70
2017-12-11T04:09:27.256Z,4.83
2017-12-11T04:11:58.180Z,5.30
2017-12-11T04:14:28.864Z,5.80
2017-12-11T04:17:00.599Z,5.10
2017-12-11T04:19:31.210Z,4.73
2017-12-11T04:22:02.762Z,5.67
2017-12-11T04:24:33.468Z,4.93
2017-12-11T04:27:04.010Z,5.77
2017-12-11T04:29:34.522Z,5.30
2017-12-11T04:32:06.761Z,4.53
2017-12-11T04:34:37.632Z,5.27
2017-12-11T04:37:08.427Z,4.23
2017-12-11T04:39:40.832Z,4.23
2017-12-11T04:42:11.923Z,3.97
2017-12-11T04:44:42.410Z,4.50
2017-12-11T04:47:14.200Z,4.20
2017-12-11T04:49:45.281Z,4.10
2017-12-11T04:52:16.960Z,4.73
2017-12-11T04:54:47.902Z,4.10
2017-12-11T04:57:18.806Z,4.73
2017-12-11T05:02:24.087Z,4.53
2017-12-11T05:04:55.119Z,4.20
2017-12-11T05:07:26.671Z,5.10
2017-12-11T05:09:57.903Z,5.17
2017-12-11T05:12:29.331Z,5.00
2017-12-11T05:14:59.630Z,5.13
2017-12-11T05:17:30.548Z,4.57
2017-12-11T05:20:01.678Z,4.73
2017-12-11T05:22:32.331Z,3.90
2017-12-11T05:25:02.981Z,4.43
2017-12-11T05:27:33.468Z,4.37
2017-12-11T05:30:04.074Z,3.80
2017-12-11T05:32:35.985Z,4.03
2017-12-11T05:35:06.820Z,5.13
2017-12-11T05:37:37.555Z,5.17
2017-12-11T05:40:08.672Z,4.50
2017-12-11T05:42:48.987Z,4.67
2017-12-11T05:45:22.829Z,5.10
2017-12-11T05:47:57.343Z,4.00
2017-12-11T05:50:31.934Z,5.13
2017-12-11T05:53:04.005Z,4.63
2017-12-11T05:55:34.454Z,4.30
2017-12-11T05:58:05.540Z,4.70
2017-12-11T06:00:36.680Z,4.30
2017-12-11T06:03:07.095Z,4.40
2017-12-11T06:05:38.565Z,4.53
2017-12-11T06:08:08.917Z,4.93
2017-12-11T06:10:39.311Z,4.30
2017-12-11T06:13:09.702Z,4.87
2017-12-11T06:15:41.274Z,5.53
2017-12-11T06:18:11.697Z,5.00
2017-12-11T06:20:42.022Z,4.80
2017-12-11T06:23:12.326Z,4.37
2017-12-11T06:25:43.598Z,4.23
2017-12-11T06:28:14.142Z,4.70
2017-12-11T06:30:44.883Z,4.90
2017-12-11T06:33:15.341Z,5.03
2017-12-11T06:35:46.431Z,4.50
2017-12-11T06:38:16.867Z,5.33
2017-12-11T06:40:47.525Z,4.93
2017-12-11T06:43:17.910Z,5.60
2017-12-11T06:45:48.533Z,4.90
2017-12-11T06:48:18.989Z,4.63
2017-12-11T06:50:51.777Z,4.90
2017-12-11T06:53:22.210Z,5.67
2017-12-11T06:55:52.503Z,4.43
2017-12-11T06:58:22.994Z,4.90
2017-12-11T07:00:53.329Z,5.00
2017-12-11T07:03:23.821Z,4.87
2017-12-11T07:05:54.409Z,4.33
2017-12-11T07:08:24.824Z,6.00
2017-12-11T07:10:55.533Z,5.03
2017-12-11T07:13:26.646Z,5.30
2017-12-11T07:15:57.253Z,5.13
2017-12-11T07:18:27.702Z,5.60
2017-12-11T07:20:58.142Z,4.90
2017-12-11T07:23:29.315Z,4.63
2017-12-11T07:26:00.165Z,5.20
2017-12-11T07:28:30.721Z,5.13
2017-12-11T07:31:01.354Z,5.00
2017-12-11T07:33:31.999Z,5.17
2017-12-11T07:36:02.733Z,4.80
2017-12-11T07:38:33.110Z,5.97
2017-12-11T07:41:03.690Z,5.53
2017-12-11T07:43:34.135Z,5.30
2017-12-11T07:46:05.860Z,5.47
2017-12-11T07:48:36.230Z,5.67
2017-12-11T07:51:06.830Z,4.97
2017-12-11T07:53:37.421Z,5.10
2017-12-11T07:56:07.768Z,5.43
2017-12-11T07:58:38.956Z,5.97
2017-12-11T08:01:10.616Z,5.50
2017-12-11T08:03:41.170Z,5.20
2017-12-11T08:06:11.595Z,4.90
2017-12-11T08:08:42.286Z,5.27
2017-12-11T08:11:13.524Z,5.23
2017-12-11T08:13:44.782Z,5.67
2017-12-11T08:16:16.131Z,5.50
2017-12-11T08:18:47.407Z,5.47
2017-12-11T08:21:17.755Z,5.10
2017-12-11T08:23:48.556Z,5.10
2017-12-11T08:26:18.973Z,5.40
2017-12-11T08:28:49.481Z,5.17
2017-12-11T08:31:31.339Z,5.00
2017-12-11T08:34:02.533Z,5.17
2017-12-11T08:36:33.101Z,5.33
2017-12-11T08:39:03.451Z,5.80
2017-12-11T08:41:34.566Z,5.50
2017-12-11T08:44:04.966Z,5.50
2017-12-11T08:46:35.822Z,5.67
2017-12-11T08:49:06.667Z,6.03
2017-12-11T08:51:37.126Z,5.27
2017-12-11T08:54:07.798Z,5.90
2017-12-11T08:56:38.266Z,5.50
2017-12-11T08:59:08.687Z,5.40
2017-12-11T09:01:39.206Z,5.80
2017-12-11T09:04:10.865Z,6.03
2017-12-11T09:06:41.735Z,6.03
2017-12-11T09:09:13.041Z,6.00
2017-12-11T09:11:43.617Z,5.87
2017-12-11T09:14:15.254Z,5.80
2017-12-11T09:16:45.852Z,5.57
2017-12-11T09:19:17.413Z,6.40
2017-12-11T09:21:48.117Z,5.60
2017-12-11T09:24:18.832Z,6.07
2017-12-11T09:26:50.116Z,6.23
2017-12-11T09:29:21.974Z,6.70
2017-12-11T09:31:52.552Z,6.20
2017-12-11T09:34:23.972Z,5.20
2017-12-11T09:36:54.611Z,6.10
2017-12-11T09:39:25.360Z,5.30
2017-12-11T09:41:56.181Z,5.47
2017-12-11T09:45:56.110Z,4.93
2017-12-11T09:48:26.594Z,6.00
2017-12-11T09:50:57.075Z,6.73
2017-12-11T09:53:28.491Z,6.80
2017-12-11T09:55:59.196Z,4.97
2017-12-11T09:58:29.835Z,6.00
2017-12-11T10:01:00.914Z,6.93
2017-12-11T10:03:31.541Z,5.97
2017-12-11T10:06:02.303Z,5.87
2017-12-11T10:08:33.182Z,6.97
2017-12-11T10:11:04.882Z,5.13
2017-12-11T10:13:36.274Z,6.77
2017-12-11T10:16:06.891Z,6.93
2017-12-11T10:21:13.628Z,5.60
2017-12-11T10:23:44.046Z,5.40
2017-12-11T10:26:14.737Z,6.07
2017-12-11T10:28:45.436Z,6.20
2017-12-11T10:31:16.749Z,6.10
2017-12-11T10:33:47.178Z,5.73
2017-12-11T10:36:17.636Z,5.50
2017-12-11T10:38:48.450Z,6.03
2017-12-11T10:41:18.955Z,5.57
2017-12-11T10:43:49.570Z,6.03
2017-12-11T10:46:20.342Z,5.53
2017-12-11T10:48:51.054Z,6.40
2017-12-11T10:51:22.665Z,7.03
2017-12-11T10:53:54.334Z,6.60
2017-12-11T10:56:25.875Z,6.10
2017-12-11T10:58:57.635Z,7.70
2017-12-11T11:01:28.114Z,7.60
2017-12-11T11:03:58.457Z,6.60
2017-12-11T11:06:28.908Z,7.83
2017-12-11T11:09:00.349Z,7.63
2017-12-11T11:11:31.845Z,7.30
2017-12-11T11:14:03.143Z,7.37
2017-12-11T11:16:34.593Z,7.43
2017-12-11T11:19:06.417Z,7.40
2017-12-11T11:21:36.895Z,8.07
2017-12-11T11:24:08.082Z,6.97
2017-12-11T11:26:38.435Z,7.10
2017-12-11T11:29:09.611Z,7.37
2017-12-11T11:31:40.922Z,6.67
2017-12-11T11:34:11.339Z,7.00
2017-12-11T11:36:41.817Z,7.83
2017-12-11T11:39:12.874Z,7.27
2017-12-11T11:41:43.224Z,7.80
2017-12-11T11:44:14.205Z,7.70
2017-12-11T11:46:45.522Z,7.30
2017-12-11T11:49:16.120Z,6.67
2017-12-11T11:51:46.533Z,6.50
2017-12-11T11:54:17.182Z,8.10
2017-12-11T11:56:48.038Z,6.53
2017-12-11T11:59:18.646Z,7.20
2017-12-11T12:01:49.534Z,8.13
2017-12-11T12:04:20.654Z,6.67
2017-12-11T12:06:52.007Z,7.07
2017-12-11T12:09:22.596Z,7.57
2017-12-11T12:11:53.236Z,8.53
2017-12-11T12:14:23.875Z,7.13
2017-12-11T12:16:54.926Z,6.67
2017-12-11T12:19:26.842Z,7.07
2017-12-11T12:21:57.619Z,6.87
2017-12-11T12:24:28.322Z,8.10
2017-12-11T12:26:59.116Z,7.43
2017-12-11T12:29:30.529Z,7.43
2017-12-11T12:32:01.132Z,6.57
2017-12-11T12:34:31.845Z,8.03
2017-12-11T12:37:02.277Z,8.30
2017-12-11T12:39:33.344Z,7.10
2017-12-11T12:42:03.775Z,7.77
2017-12-11T12:44:34.307Z,7.63
2017-12-11T12:47:04.896Z,6.90
2017-12-11T12:49:36.247Z,7.80
2017-12-11T12:52:07.155Z,7.77
2017-12-11T12:54:37.795Z,8.03
2017-12-11T12:57:09.734Z,7.50
2017-12-11T12:59:40.808Z,6.93
2017-12-11T13:02:12.050Z,7.40
2017-12-11T13:04:42.523Z,8.97
2017-12-11T13:07:13.206Z,7.27
2017-12-11T13:09:44.533Z,7.77
2017-12-11T13:12:15.139Z,7.97
2017-12-11T13:14:45.964Z,6.87
2017-12-11T13:17:16.675Z,7.20
2017-12-11T13:19:47.166Z,7.60
2017-12-11T13:22:18.521Z,7.60
2017-12-11T13:24:50.283Z,7.20
2017-12-11T13:27:21.454Z,7.40
2017-12-11T13:29:52.135Z,6.20
2017-12-11T13:32:23.383Z,7.43
2017-12-11T13:34:55.309Z,6.60
2017-12-11T13:37:26.546Z,7.37
2017-12-11T13:39:57.922Z,7.20
2017-12-11T13:42:28.335Z,8.47
2017-12-11T13:44:58.751Z,6.70
2017-12-11T13:47:29.406Z,7.40
2017-12-11T13:50:00.158Z,6.70
2017-12-11T13:52:31.429Z,7.47
2017-12-11T13:55:01.785Z,8.07
2017-12-11T13:57:32.375Z,8.07
2017-12-11T14:00:03.384Z,7.33
2017-12-11T14:02:34.056Z,6.80
2017-12-11T14:05:06.113Z,6.10
2017-12-11T14:07:36.429Z,6.63
2017-12-11T14:10:07.578Z,7.47
2017-12-11T14:12:39.254Z,7.00
2017-12-11T14:15:09.592Z,8.00
2017-12-11T14:17:39.992Z,7.27
2017-12-11T14:20:10.574Z,5.13
2017-12-11T14:22:40.974Z,8.50
2017-12-11T14:25:11.348Z,7.23
2017-12-11T14:27:41.788Z,7.77
2017-12-11T14:30:13.189Z,7.57
2017-12-11T14:32:43.553Z,8.07
2017-12-11T14:35:14.743Z,8.17
2017-12-11T14:37:45.293Z,8.30
2017-12-11T14:40:15.642Z,7.53
2017-12-11T14:42:46.608Z,7.10
2017-12-11T14:45:17.060Z,8.30
2017-12-11T14:47:47.645Z,8.57
2017-12-11T14:50:19.062Z,7.80
2017-12-11T14:52:49.634Z,8.10
2017-12-11T14:55:20.884Z,6.97
2017-12-11T14:57:52.159Z,8.70
2017-12-11T15:00:23.158Z,7.30
2017-12-11T15:02:53.826Z,8.77
2017-12-11T15:05:24.363Z,8.33
2017-12-11T15:07:54.901Z,7.87
2017-12-11T15:10:26.366Z,6.90
2017-12-11T15:12:57.553Z,8.23
2017-12-11T15:15:28.097Z,7.50
2017-12-11T15:17:58.652Z,7.80
2017-12-11T15:20:29.494Z,7.40
2017-12-11T15:23:00.045Z,5.83
2017-12-11T15:25:31.613Z,7.70
2017-12-11T15:28:02.921Z,8.13
2017-12-11T15:30:33.502Z,7.40
2017-12-11T15:33:04.491Z,8.13
2017-12-11T15:35:35.161Z,6.63
2017-12-11T15:38:05.881Z,7.60
2017-12-11T15:40:36.517Z,7.00
2017-12-11T15:43:07.841Z,7.67
2017-12-11T15:45:38.945Z,7.40
2017-12-11T15:48:09.433Z,9.00
2017-12-11T15:50:40.854Z,8.60
2017-12-11T15:53:11.386Z,8.63
2017-12-11T15:55:42.507Z,8.73
2017-12-11T15:58:13.277Z,8.70
2017-12-11T16:00:43.845Z,8.90
2017-12-11T16:03:14.607Z,9.63
2017-12-11T16:05:45.401Z,8.60
2017-12-11T16:08:15.996Z,9.50
2017-12-11T16:10:46.724Z,9.30
2017-12-11T16:13:18.958Z,8.47
2017-12-11T16:15:49.519Z,7.27
2017-12-11T16:18:20.338Z,7.27
2017-12-11T16:20:50.822Z,8.87
2017-12-11T16:23:21.402Z,7.57
2017-12-11T16:25:51.950Z,8.23
2017-12-11T16:28:22.937Z,7.90
2017-12-11T16:30:53.564Z,7.87
2017-12-11T16:33:24.090Z,8.13
2017-12-11T16:35:54.741Z,9.03
2017-12-11T16:38:25.690Z,8.67
2017-12-11T16:40:57.034Z,7.97
2017-12-11T16:43:27.571Z,8.73
2017-12-11T16:45:58.305Z,7.97
2017-12-11T16:48:29.527Z,7.93
2017-12-11T16:51:00.180Z,8.50
2017-12-11T16:53:31.428Z,7.87
2017-12-11T16:56:02.140Z,9.40
2017-12-11T16:58:32.876Z,8.03
2017-12-11T17:01:03.430Z,8.37
2017-12-11T17:03:34.908Z,9.23
2017-12-11T17:06:05.654Z,8.60
2017-12-11T17:08:36.369Z,9.40
2017-12-11T17:11:07.974Z,8.07
2017-12-11T17:13:38.383Z,7.97
2017-12-11T17:16:21.076Z,9.40
2017-12-11T17:18:58.648Z,8.77
2017-12-11T17:21:29.953Z,10.27
2017-12-11T17:24:00.954Z,8.67
2017-12-11T17:26:32.131Z,8.03
2017-12-11T17:29:02.860Z,7.47
2017-12-11T17:31:33.955Z,9.50
2017-12-11T17:34:04.582Z,9.20
2017-12-11T17:36:36.686Z,9.40
2017-12-11T17:39:07.283Z,8.50
2017-12-11T17:41:37.993Z,8.63
2017-12-11T17:44:08.449Z,7.90
2017-12-11T17:46:39.031Z,8.93
2017-12-11T17:49:09.354Z,9.77
2017-12-11T17:51:39.790Z,7.97
2017-12-11T17:54:10.598Z,8.57
2017-12-11T17:56:41.087Z,8.67
2017-12-11T17:59:11.669Z,7.97
2017-12-11T18:01:42.197Z,7.90
2017-12-11T18:04:14.293Z,8.47
2017-12-11T18:06:46.119Z,9.10
2017-12-11T18:09:17.975Z,9.17
2017-12-11T18:11:49.568Z,9.60
2017-12-11T18:14:21.011Z,8.53
2017-12-11T18:16:52.236Z,9.17
2017-12-11T18:19:23.776Z,9.87
2017-12-11T18:21:55.742Z,9.27
2017-12-11T18:24:27.107Z,11.27
2017-12-11T18:26:57.438Z,8.83
2017-12-11T18:29:28.165Z,8.97
2017-12-11T18:31:58.633Z,9.17
2017-12-11T18:34:29.240Z,8.50
2017-12-11T18:37:00.710Z,8.67
2017-12-11T18:39:31.169Z,9.37
2017-12-11T18:42:02.937Z,8.40
2017-12-11T18:44:34.447Z,9.00
2017-12-11T18:47:06.506Z,9.97
2017-12-11T18:49:37.166Z,9.57
2017-12-11T18:52:07.698Z,7.73
2017-12-11T18:54:38.286Z,9.70
2017-12-11T18:57:08.992Z,9.93
2017-12-11T18:59:39.704Z,10.40
2017-12-11T19:02:10.499Z,8.50
2017-12-11T19:04:41.882Z,9.73
2017-12-11T19:07:13.712Z,9.13
2017-12-11T19:09:45.375Z,8.87
2017-12-11T19:12:16.097Z,10.60
2017-12-11T19:16:16.260Z,9.73
2017-12-11T19:18:47.174Z,11.30
2017-12-11T19:21:18.154Z,11.07
2017-12-11T19:23:48.730Z,10.60
2017-12-11T19:26:19.426Z,8.40
2017-12-11T19:28:50.633Z,11.47
2017-12-11T19:31:21.434Z,8.90
2017-12-11T19:33:52.233Z,12.07
2017-12-11T19:36:23.508Z,11.07
2017-12-11T19:38:54.329Z,40.73
2017-12-11T19:41:25.437Z,20.00
2017-12-11T19:43:57.593Z,15.50
2017-12-11T19:46:29.157Z,14.13
2017-12-11T19:49:00.155Z,12.37
2017-12-11T19:51:31.587Z,11.27
2017-12-11T19:54:02.877Z,11.80
2017-12-11T19:56:33.394Z,9.80
2017-12-11T19:59:05.039Z,13.37
2017-12-11T20:01:35.610Z,10.97
2017-12-11T20:04:06.341Z,9.63
2017-12-11T20:06:36.855Z,10.90
2017-12-11T20:10:10.287Z,11.20
2017-12-11T20:12:40.988Z,9.93
2017-12-11T20:15:11.751Z,9.33
2017-12-11T20:17:44.157Z,13.57
2017-12-11T20:20:14.721Z,11.40
2017-12-11T20:22:45.545Z,13.03
2017-12-11T20:25:16.714Z,13.60
2017-12-11T20:27:48.061Z,9.63
2017-12-11T20:30:18.880Z,11.67
2017-12-11T20:32:49.818Z,11.00
2017-12-11T20:35:23.297Z,9.67
2017-12-11T20:37:54.678Z,12.57
2017-12-11T20:40:25.515Z,12.80
2017-12-11T20:42:56.971Z,9.93
2017-12-11T20:45:28.000Z,9.97
2017-12-11T20:47:59.074Z,10.00
2017-12-11T20:50:30.093Z,9.23
2017-12-11T20:53:03.935Z,9.40
2017-12-11T20:55:35.715Z,8.37
2017-12-11T20:58:12.266Z,9.97
2017-12-11T21:00:43.230Z,9.10
2017-12-11T21:03:14.511Z,9.40
2017-12-11T21:05:45.706Z,9.70
2017-12-11T21:08:17.358Z,9.67
2017-12-11T21:10:48.112Z,10.20
2017-12-11T21:13:19.275Z,10.07
2017-12-11T21:15:50.079Z,8.67
2017-12-11T21:18:20.761Z,10.90
2017-12-11T21:20:52.320Z,9.40
2017-12-11T21:23:23.155Z,9.60
2017-12-11T21:25:53.678Z,11.53
2017-12-11T21:28:24.144Z,9.30
2017-12-11T21:30:56.049Z,11.10
2017-12-11T21:33:26.950Z,8.83
2017-12-11T21:35:58.177Z,7.77
2017-12-11T21:39:58.259Z,10.03
2017-12-11T21:42:29.222Z,9.90
2017-12-11T21:45:00.325Z,9.90
2017-12-11T21:47:31.211Z,10.60
2017-12-11T21:50:02.402Z,9.43
2017-12-11T21:52:33.104Z,9.97
2017-12-11T21:55:04.679Z,8.87
2017-12-11T21:57:35.589Z,9.10
2017-12-11T22:00:06.630Z,9.30
2017-12-11T22:02:37.489Z,9.43
2017-12-11T22:05:08.126Z,8.90
2017-12-11T22:07:39.454Z,7.17
2017-12-11T22:10:10.218Z,7.43
2017-12-11T22:12:40.862Z,9.73
2017-12-11T22:15:11.601Z,9.90
2017-12-11T22:17:42.544Z,8.77
2017-12-11T22:20:13.218Z,8.90
2017-12-11T22:22:44.326Z,8.47
2017-12-11T22:25:15.808Z,9.80
2017-12-11T22:27:47.469Z,9.97
2017-12-11T22:30:20.533Z,7.90
2017-12-11T22:32:52.664Z,8.00
2017-12-11T22:35:24.592Z,11.17
2017-12-11T22:37:55.896Z,9.50
2017-12-11T22:40:26.797Z,8.90
2017-12-11T22:42:57.502Z,8.97
2017-12-11T22:45:29.111Z,10.33
2017-12-11T22:47:59.745Z,9.80
2017-12-11T22:50:30.219Z,9.50
2017-12-11T22:53:01.269Z,8.37
2017-12-11T22:55:35.751Z,10.50
2017-12-11T22:58:06.787Z,10.13
2017-12-11T23:00:38.474Z,8.60
2017-12-11T23:03:09.717Z,10.57
2017-12-11T23:05:41.591Z,10.30
2017-12-11T23:08:12.372Z,9.07
2017-12-11T23:10:43.497Z,9.77
2017-12-11T23:13:14.685Z,9.10
2017-12-11T23:15:45.871Z,11.10
2017-12-11T23:18:16.481Z,9.83
2017-12-11T23:20:48.209Z,9.50
2017-12-11T23:23:20.430Z,9.90
2017-12-11T23:25:51.411Z,9.27
2017-12-11T23:28:22.170Z,8.93
2017-12-11T23:30:56.411Z,9.13
2017-12-11T23:33:27.157Z,9.80
2017-12-11T23:35:59.237Z,9.07
2017-12-11T23:38:31.087Z,8.67
2017-12-11T23:41:01.680Z,9.10
2017-12-11T23:43:32.530Z,8.40
2017-12-11T23:46:03.405Z,8.17
2017-12-11T23:48:34.343Z,8.57
2017-12-11T23:51:04.854Z,8.27
2017-12-11T23:53:36.914Z,7.83
2017-12-11T23:56:08.441Z,7.20
2017-12-11T23:58:38.996Z,8.57
